sensor_id;sensor_type;location;lat;lon;timestamp;P1;durP1;ratioP1;P2;durP2;ratioP2
27977;SDS011;15314;49.248;6.968;2023-07-02T00:00:55;14.75;;;13.25;;
27977;SDS011;15314;49.248;6.968;2023-07-02T00:01:56;15.60;;;13.70;;
27977;SDS011;15314;49.248;6.968;2023-07-02T00:02:58;13.00;;;11.90;;
27977;SDS011;15314;49.248;6.968;2023-07-02T00:04:00;11.50;;;10.55;;
27977;SDS011;15314;49.248;6.968;2023-07-02T00:05:02;10.35;;;9.50;;
27977;SDS011;15314;49.248;6.968;2023-07-02T00:06:02;9.38;;;8.55;;
27977;SDS011;15314;49.248;6.968;2023-07-02T00:07:03;8.95;;;8.25;;
27977;SDS011;15314;49.248;6.968;2023-07-02T00:08:04;8.32;;;7.75;;
27977;SDS011;15314;49.248;6.968;2023-07-02T00:09:11;8.98;;;8.35;;
27977;SDS011;15314;49.248;6.968;2023-07-02T00:10:12;8.55;;;7.97;;
27977;SDS011;15314;49.248;6.968;2023-07-02T00:11:15;8.82;;;8.15;;
27977;SDS011;15314;49.248;6.968;2023-07-02T00:12:16;8.57;;;8.07;;
27977;SDS011;15314;49.248;6.968;2023-07-02T00:13:17;8.60;;;8.10;;
27977;SDS011;15314;49.248;6.968;2023-07-02T00:14:17;8.80;;;8.00;;
27977;SDS011;15314;49.248;6.968;2023-07-02T00:15:18;9.30;;;8.43;;
27977;SDS011;15314;49.248;6.968;2023-07-02T00:16:18;12.68;;;11.35;;
27977;SDS011;15314;49.248;6.968;2023-07-02T00:17:19;10.43;;;9.55;;
27977;SDS011;15314;49.248;6.968;2023-07-02T00:18:21;10.18;;;9.23;;
27977;SDS011;15314;49.248;6.968;2023-07-02T00:19:22;8.80;;;8.20;;
27977;SDS011;15314;49.248;6.968;2023-07-02T00:20:22;11.98;;;11.10;;
27977;SDS011;15314;49.248;6.968;2023-07-02T00:21:23;9.13;;;8.32;;
27977;SDS011;15314;49.248;6.968;2023-07-02T00:22:28;8.98;;;8.38;;
27977;SDS011;15314;49.248;6.968;2023-07-02T00:23:29;8.63;;;7.90;;
27977;SDS011;15314;49.248;6.968;2023-07-02T00:24:30;8.80;;;8.13;;
27977;SDS011;15314;49.248;6.968;2023-07-02T00:25:31;9.25;;;8.48;;
27977;SDS011;15314;49.248;6.968;2023-07-02T00:26:31;9.15;;;8.40;;
27977;SDS011;15314;49.248;6.968;2023-07-02T00:27:32;9.70;;;8.50;;
27977;SDS011;15314;49.248;6.968;2023-07-02T00:28:33;8.60;;;7.95;;
27977;SDS011;15314;49.248;6.968;2023-07-02T00:29:34;8.43;;;7.93;;
27977;SDS011;15314;49.248;6.968;2023-07-02T00:30:34;9.10;;;8.27;;
27977;SDS011;15314;49.248;6.968;2023-07-02T00:31:35;8.93;;;8.27;;
27977;SDS011;15314;49.248;6.968;2023-07-02T00:32:35;8.52;;;8.00;;
27977;SDS011;15314;49.248;6.968;2023-07-02T00:33:36;8.98;;;8.23;;
27977;SDS011;15314;49.248;6.968;2023-07-02T00:34:37;9.68;;;8.70;;
27977;SDS011;15314;49.248;6.968;2023-07-02T00:35:37;8.98;;;8.38;;
27977;SDS011;15314;49.248;6.968;2023-07-02T00:36:38;9.00;;;8.30;;
27977;SDS011;15314;49.248;6.968;2023-07-02T00:37:39;8.60;;;8.00;;
27977;SDS011;15314;49.248;6.968;2023-07-02T00:38:44;8.82;;;8.13;;
27977;SDS011;15314;49.248;6.968;2023-07-02T00:39:47;8.57;;;7.85;;
27977;SDS011;15314;49.248;6.968;2023-07-02T00:40:47;8.95;;;8.25;;
27977;SDS011;15314;49.248;6.968;2023-07-02T00:41:48;9.55;;;8.65;;
27977;SDS011;15314;49.248;6.968;2023-07-02T00:42:49;8.63;;;7.60;;
27977;SDS011;15314;49.248;6.968;2023-07-02T00:43:49;8.38;;;7.78;;
27977;SDS011;15314;49.248;6.968;2023-07-02T00:44:54;7.32;;;6.82;;
27977;SDS011;15314;49.248;6.968;2023-07-02T00:45:57;8.80;;;8.10;;
27977;SDS011;15314;49.248;6.968;2023-07-02T00:46:57;8.93;;;8.02;;
27977;SDS011;15314;49.248;6.968;2023-07-02T00:47:58;9.30;;;7.72;;
27977;SDS011;15314;49.248;6.968;2023-07-02T00:48:59;8.60;;;7.85;;
27977;SDS011;15314;49.248;6.968;2023-07-02T00:50:02;7.50;;;6.88;;
27977;SDS011;15314;49.248;6.968;2023-07-02T00:51:03;8.38;;;7.68;;
27977;SDS011;15314;49.248;6.968;2023-07-02T00:52:03;7.95;;;7.45;;
27977;SDS011;15314;49.248;6.968;2023-07-02T00:53:04;8.57;;;7.53;;
27977;SDS011;15314;49.248;6.968;2023-07-02T00:54:05;8.38;;;7.70;;
27977;SDS011;15314;49.248;6.968;2023-07-02T00:55:06;8.63;;;7.90;;
27977;SDS011;15314;49.248;6.968;2023-07-02T00:56:07;8.48;;;7.88;;
27977;SDS011;15314;49.248;6.968;2023-07-02T00:57:07;8.13;;;7.35;;
27977;SDS011;15314;49.248;6.968;2023-07-02T00:58:08;8.18;;;7.57;;
27977;SDS011;15314;49.248;6.968;2023-07-02T00:59:09;8.60;;;7.82;;
27977;SDS011;15314;49.248;6.968;2023-07-02T01:00:10;8.00;;;7.55;;
27977;SDS011;15314;49.248;6.968;2023-07-02T01:01:11;8.98;;;8.27;;
27977;SDS011;15314;49.248;6.968;2023-07-02T01:02:22;8.73;;;8.02;;
27977;SDS011;15314;49.248;6.968;2023-07-02T01:03:25;8.40;;;7.70;;
27977;SDS011;15314;49.248;6.968;2023-07-02T01:04:26;8.40;;;7.80;;
27977;SDS011;15314;49.248;6.968;2023-07-02T01:05:30;8.65;;;7.70;;
27977;SDS011;15314;49.248;6.968;2023-07-02T01:06:37;8.10;;;7.45;;
27977;SDS011;15314;49.248;6.968;2023-07-02T01:07:41;7.93;;;7.32;;
27977;SDS011;15314;49.248;6.968;2023-07-02T01:08:41;9.13;;;8.25;;
27977;SDS011;15314;49.248;6.968;2023-07-02T01:09:42;8.40;;;7.65;;
27977;SDS011;15314;49.248;6.968;2023-07-02T01:10:42;8.45;;;7.85;;
27977;SDS011;15314;49.248;6.968;2023-07-02T01:11:44;8.77;;;8.07;;
27977;SDS011;15314;49.248;6.968;2023-07-02T01:12:50;7.90;;;7.18;;
27977;SDS011;15314;49.248;6.968;2023-07-02T01:13:51;8.43;;;7.72;;
27977;SDS011;15314;49.248;6.968;2023-07-02T01:14:56;7.20;;;6.70;;
27977;SDS011;15314;49.248;6.968;2023-07-02T01:16:00;8.07;;;7.32;;
27977;SDS011;15314;49.248;6.968;2023-07-02T01:17:02;7.97;;;7.40;;
27977;SDS011;15314;49.248;6.968;2023-07-02T01:18:06;7.93;;;7.28;;
27977;SDS011;15314;49.248;6.968;2023-07-02T01:19:11;9.25;;;7.55;;
27977;SDS011;15314;49.248;6.968;2023-07-02T01:20:18;8.32;;;7.47;;
27977;SDS011;15314;49.248;6.968;2023-07-02T01:21:21;7.57;;;7.07;;
27977;SDS011;15314;49.248;6.968;2023-07-02T01:22:25;7.85;;;7.18;;
27977;SDS011;15314;49.248;6.968;2023-07-02T01:23:27;7.45;;;6.95;;
27977;SDS011;15314;49.248;6.968;2023-07-02T01:24:28;8.68;;;7.80;;
27977;SDS011;15314;49.248;6.968;2023-07-02T01:25:29;8.50;;;7.80;;
27977;SDS011;15314;49.248;6.968;2023-07-02T01:26:31;8.00;;;7.32;;
27977;SDS011;15314;49.248;6.968;2023-07-02T01:27:33;7.82;;;7.15;;
27977;SDS011;15314;49.248;6.968;2023-07-02T01:28:35;8.05;;;7.32;;
27977;SDS011;15314;49.248;6.968;2023-07-02T01:29:37;7.75;;;7.15;;
27977;SDS011;15314;49.248;6.968;2023-07-02T01:30:37;7.95;;;7.25;;
27977;SDS011;15314;49.248;6.968;2023-07-02T01:31:38;7.47;;;6.85;;
27977;SDS011;15314;49.248;6.968;2023-07-02T01:32:39;8.45;;;7.82;;
27977;SDS011;15314;49.248;6.968;2023-07-02T01:33:40;8.32;;;7.40;;
27977;SDS011;15314;49.248;6.968;2023-07-02T01:34:40;8.82;;;7.45;;
27977;SDS011;15314;49.248;6.968;2023-07-02T01:35:44;8.88;;;8.07;;
27977;SDS011;15314;49.248;6.968;2023-07-02T01:36:45;22.20;;;17.80;;
27977;SDS011;15314;49.248;6.968;2023-07-02T01:37:45;13.57;;;12.38;;
27977;SDS011;15314;49.248;6.968;2023-07-02T01:38:46;10.13;;;9.10;;
27977;SDS011;15314;49.248;6.968;2023-07-02T01:39:46;9.88;;;8.98;;
27977;SDS011;15314;49.248;6.968;2023-07-02T01:40:47;8.90;;;8.02;;
27977;SDS011;15314;49.248;6.968;2023-07-02T01:41:52;9.02;;;8.18;;
27977;SDS011;15314;49.248;6.968;2023-07-02T01:42:54;8.38;;;7.78;;
27977;SDS011;15314;49.248;6.968;2023-07-02T01:43:54;8.48;;;7.78;;
27977;SDS011;15314;49.248;6.968;2023-07-02T01:44:55;9.10;;;7.85;;
27977;SDS011;15314;49.248;6.968;2023-07-02T01:45:56;8.23;;;7.60;;
27977;SDS011;15314;49.248;6.968;2023-07-02T01:46:57;8.40;;;7.80;;
27977;SDS011;15314;49.248;6.968;2023-07-02T01:47:58;8.85;;;8.25;;
27977;SDS011;15314;49.248;6.968;2023-07-02T01:48:59;9.95;;;8.95;;
27977;SDS011;15314;49.248;6.968;2023-07-02T01:50:00;8.55;;;7.95;;
27977;SDS011;15314;49.248;6.968;2023-07-02T01:51:02;8.55;;;7.85;;
27977;SDS011;15314;49.248;6.968;2023-07-02T01:52:03;8.90;;;8.02;;
27977;SDS011;15314;49.248;6.968;2023-07-02T01:53:04;9.27;;;8.48;;
27977;SDS011;15314;49.248;6.968;2023-07-02T01:54:05;9.23;;;8.40;;
27977;SDS011;15314;49.248;6.968;2023-07-02T01:55:05;9.13;;;8.35;;
27977;SDS011;15314;49.248;6.968;2023-07-02T01:56:06;8.63;;;7.68;;
27977;SDS011;15314;49.248;6.968;2023-07-02T01:57:07;9.50;;;8.05;;
27977;SDS011;15314;49.248;6.968;2023-07-02T01:58:08;8.25;;;7.65;;
27977;SDS011;15314;49.248;6.968;2023-07-02T01:59:09;8.60;;;7.63;;
27977;SDS011;15314;49.248;6.968;2023-07-02T02:00:10;9.27;;;8.52;;
27977;SDS011;15314;49.248;6.968;2023-07-02T02:01:11;8.80;;;7.95;;
27977;SDS011;15314;49.248;6.968;2023-07-02T02:02:12;8.57;;;7.72;;
27977;SDS011;15314;49.248;6.968;2023-07-02T02:03:14;9.13;;;8.32;;
27977;SDS011;15314;49.248;6.968;2023-07-02T02:04:15;9.20;;;8.30;;
27977;SDS011;15314;49.248;6.968;2023-07-02T02:05:15;9.60;;;8.68;;
27977;SDS011;15314;49.248;6.968;2023-07-02T02:06:16;9.98;;;9.02;;
27977;SDS011;15314;49.248;6.968;2023-07-02T02:07:17;9.30;;;8.40;;
27977;SDS011;15314;49.248;6.968;2023-07-02T02:08:17;8.65;;;8.05;;
27977;SDS011;15314;49.248;6.968;2023-07-02T02:09:18;8.55;;;7.95;;
27977;SDS011;15314;49.248;6.968;2023-07-02T02:10:19;9.25;;;8.23;;
27977;SDS011;15314;49.248;6.968;2023-07-02T02:11:20;9.38;;;8.57;;
27977;SDS011;15314;49.248;6.968;2023-07-02T02:12:20;8.80;;;7.80;;
27977;SDS011;15314;49.248;6.968;2023-07-02T02:13:21;9.75;;;8.90;;
27977;SDS011;15314;49.248;6.968;2023-07-02T02:14:22;9.70;;;8.88;;
27977;SDS011;15314;49.248;6.968;2023-07-02T02:15:22;9.00;;;8.30;;
27977;SDS011;15314;49.248;6.968;2023-07-02T02:16:23;9.85;;;8.93;;
27977;SDS011;15314;49.248;6.968;2023-07-02T02:17:24;9.88;;;8.93;;
27977;SDS011;15314;49.248;6.968;2023-07-02T02:18:24;9.23;;;8.48;;
27977;SDS011;15314;49.248;6.968;2023-07-02T02:19:25;10.30;;;8.63;;
27977;SDS011;15314;49.248;6.968;2023-07-02T02:20:25;9.45;;;8.65;;
27977;SDS011;15314;49.248;6.968;2023-07-02T02:21:26;10.05;;;9.10;;
27977;SDS011;15314;49.248;6.968;2023-07-02T02:22:27;9.45;;;8.60;;
27977;SDS011;15314;49.248;6.968;2023-07-02T02:23:28;9.57;;;8.60;;
27977;SDS011;15314;49.248;6.968;2023-07-02T02:24:28;10.40;;;9.43;;
27977;SDS011;15314;49.248;6.968;2023-07-02T02:25:29;9.38;;;8.60;;
27977;SDS011;15314;49.248;6.968;2023-07-02T02:26:30;10.43;;;9.35;;
27977;SDS011;15314;49.248;6.968;2023-07-02T02:27:30;9.27;;;8.48;;
27977;SDS011;15314;49.248;6.968;2023-07-02T02:28:31;10.38;;;9.38;;
27977;SDS011;15314;49.248;6.968;2023-07-02T02:29:32;11.50;;;9.13;;
27977;SDS011;15314;49.248;6.968;2023-07-02T02:30:32;10.55;;;9.70;;
27977;SDS011;15314;49.248;6.968;2023-07-02T02:31:33;9.73;;;8.90;;
27977;SDS011;15314;49.248;6.968;2023-07-02T02:32:33;10.35;;;9.38;;
27977;SDS011;15314;49.248;6.968;2023-07-02T02:33:34;11.13;;;9.23;;
27977;SDS011;15314;49.248;6.968;2023-07-02T02:34:35;10.25;;;9.25;;
27977;SDS011;15314;49.248;6.968;2023-07-02T02:35:36;10.55;;;9.40;;
27977;SDS011;15314;49.248;6.968;2023-07-02T02:36:36;14.02;;;9.77;;
27977;SDS011;15314;49.248;6.968;2023-07-02T02:37:37;10.02;;;9.05;;
27977;SDS011;15314;49.248;6.968;2023-07-02T02:38:39;10.73;;;9.82;;
27977;SDS011;15314;49.248;6.968;2023-07-02T02:39:40;11.73;;;9.55;;
27977;SDS011;15314;49.248;6.968;2023-07-02T02:40:49;10.80;;;9.85;;
27977;SDS011;15314;49.248;6.968;2023-07-02T02:41:50;12.18;;;10.75;;
27977;SDS011;15314;49.248;6.968;2023-07-02T02:42:51;10.65;;;9.65;;
27977;SDS011;15314;49.248;6.968;2023-07-02T02:43:51;12.57;;;10.38;;
27977;SDS011;15314;49.248;6.968;2023-07-02T02:44:52;13.98;;;11.10;;
27977;SDS011;15314;49.248;6.968;2023-07-02T02:45:53;10.98;;;10.00;;
27977;SDS011;15314;49.248;6.968;2023-07-02T02:46:53;11.75;;;10.52;;
27977;SDS011;15314;49.248;6.968;2023-07-02T02:47:54;10.90;;;9.93;;
27977;SDS011;15314;49.248;6.968;2023-07-02T02:48:54;11.80;;;10.35;;
27977;SDS011;15314;49.248;6.968;2023-07-02T02:49:55;11.75;;;10.70;;
27977;SDS011;15314;49.248;6.968;2023-07-02T02:50:56;11.02;;;10.00;;
27977;SDS011;15314;49.248;6.968;2023-07-02T02:51:56;12.27;;;10.90;;
27977;SDS011;15314;49.248;6.968;2023-07-02T02:52:57;12.50;;;11.18;;
27977;SDS011;15314;49.248;6.968;2023-07-02T02:53:58;12.38;;;10.45;;
27977;SDS011;15314;49.248;6.968;2023-07-02T02:54:59;15.70;;;11.65;;
27977;SDS011;15314;49.248;6.968;2023-07-02T02:55:59;14.18;;;11.18;;
27977;SDS011;15314;49.248;6.968;2023-07-02T02:57:00;11.95;;;10.73;;
27977;SDS011;15314;49.248;6.968;2023-07-02T02:58:01;14.80;;;11.45;;
27977;SDS011;15314;49.248;6.968;2023-07-02T02:59:01;13.23;;;11.27;;
27977;SDS011;15314;49.248;6.968;2023-07-02T03:00:02;13.65;;;11.00;;
27977;SDS011;15314;49.248;6.968;2023-07-02T03:01:04;14.60;;;10.80;;
27977;SDS011;15314;49.248;6.968;2023-07-02T03:02:10;12.88;;;11.20;;
27977;SDS011;15314;49.248;6.968;2023-07-02T03:03:14;13.70;;;11.07;;
27977;SDS011;15314;49.248;6.968;2023-07-02T03:04:16;13.27;;;11.00;;
27977;SDS011;15314;49.248;6.968;2023-07-02T03:05:17;12.50;;;11.38;;
27977;SDS011;15314;49.248;6.968;2023-07-02T03:06:18;15.77;;;11.77;;
27977;SDS011;15314;49.248;6.968;2023-07-02T03:07:19;12.23;;;10.80;;
27977;SDS011;15314;49.248;6.968;2023-07-02T03:08:20;19.05;;;12.00;;
27977;SDS011;15314;49.248;6.968;2023-07-02T03:09:20;14.77;;;11.90;;
27977;SDS011;15314;49.248;6.968;2023-07-02T03:10:21;13.57;;;11.73;;
27977;SDS011;15314;49.248;6.968;2023-07-02T03:11:21;16.67;;;11.82;;
27977;SDS011;15314;49.248;6.968;2023-07-02T03:12:22;17.27;;;12.07;;
27977;SDS011;15314;49.248;6.968;2023-07-02T03:13:23;13.68;;;11.35;;
27977;SDS011;15314;49.248;6.968;2023-07-02T03:14:24;16.02;;;11.18;;
27977;SDS011;15314;49.248;6.968;2023-07-02T03:15:24;15.43;;;12.75;;
27977;SDS011;15314;49.248;6.968;2023-07-02T03:16:25;15.15;;;11.68;;
27977;SDS011;15314;49.248;6.968;2023-07-02T03:17:25;12.93;;;11.35;;
27977;SDS011;15314;49.248;6.968;2023-07-02T03:18:26;13.63;;;12.15;;
27977;SDS011;15314;49.248;6.968;2023-07-02T03:19:27;13.65;;;11.93;;
27977;SDS011;15314;49.248;6.968;2023-07-02T03:20:27;13.65;;;11.88;;
27977;SDS011;15314;49.248;6.968;2023-07-02T03:21:28;18.42;;;12.20;;
27977;SDS011;15314;49.248;6.968;2023-07-02T03:22:30;21.50;;;11.93;;
27977;SDS011;15314;49.248;6.968;2023-07-02T03:23:30;16.27;;;12.07;;
27977;SDS011;15314;49.248;6.968;2023-07-02T03:24:31;18.48;;;12.70;;
27977;SDS011;15314;49.248;6.968;2023-07-02T03:25:32;13.73;;;12.07;;
27977;SDS011;15314;49.248;6.968;2023-07-02T03:26:32;13.23;;;11.75;;
27977;SDS011;15314;49.248;6.968;2023-07-02T03:27:33;13.73;;;11.48;;
27977;SDS011;15314;49.248;6.968;2023-07-02T03:28:33;13.80;;;12.43;;
27977;SDS011;15314;49.248;6.968;2023-07-02T03:29:35;16.27;;;11.95;;
27977;SDS011;15314;49.248;6.968;2023-07-02T03:30:38;15.32;;;12.70;;
27977;SDS011;15314;49.248;6.968;2023-07-02T03:31:38;16.08;;;12.00;;
27977;SDS011;15314;49.248;6.968;2023-07-02T03:32:39;16.00;;;12.65;;
27977;SDS011;15314;49.248;6.968;2023-07-02T03:33:40;18.83;;;12.85;;
27977;SDS011;15314;49.248;6.968;2023-07-02T03:34:40;14.10;;;12.18;;
27977;SDS011;15314;49.248;6.968;2023-07-02T03:35:41;14.77;;;11.73;;
27977;SDS011;15314;49.248;6.968;2023-07-02T03:36:42;15.27;;;12.48;;
27977;SDS011;15314;49.248;6.968;2023-07-02T03:37:44;13.55;;;12.18;;
27977;SDS011;15314;49.248;6.968;2023-07-02T03:38:46;16.60;;;12.10;;
27977;SDS011;15314;49.248;6.968;2023-07-02T03:39:47;16.70;;;12.60;;
27977;SDS011;15314;49.248;6.968;2023-07-02T03:40:47;14.88;;;11.57;;
27977;SDS011;15314;49.248;6.968;2023-07-02T03:41:48;16.52;;;12.93;;
27977;SDS011;15314;49.248;6.968;2023-07-02T03:42:48;15.63;;;12.13;;
27977;SDS011;15314;49.248;6.968;2023-07-02T03:43:49;15.27;;;11.32;;
27977;SDS011;15314;49.248;6.968;2023-07-02T03:44:50;18.42;;;12.85;;
27977;SDS011;15314;49.248;6.968;2023-07-02T03:45:54;14.25;;;11.77;;
27977;SDS011;15314;49.248;6.968;2023-07-02T03:46:54;16.95;;;12.38;;
27977;SDS011;15314;49.248;6.968;2023-07-02T03:47:55;15.13;;;11.57;;
27977;SDS011;15314;49.248;6.968;2023-07-02T03:48:55;12.63;;;11.35;;
27977;SDS011;15314;49.248;6.968;2023-07-02T03:49:56;14.35;;;12.00;;
27977;SDS011;15314;49.248;6.968;2023-07-02T03:50:57;15.40;;;12.65;;
27977;SDS011;15314;49.248;6.968;2023-07-02T03:51:57;13.48;;;12.13;;
27977;SDS011;15314;49.248;6.968;2023-07-02T03:52:58;19.50;;;12.25;;
27977;SDS011;15314;49.248;6.968;2023-07-02T03:53:59;17.90;;;12.73;;
27977;SDS011;15314;49.248;6.968;2023-07-02T03:54:59;16.67;;;12.73;;
27977;SDS011;15314;49.248;6.968;2023-07-02T03:56:00;14.32;;;12.85;;
27977;SDS011;15314;49.248;6.968;2023-07-02T03:57:01;15.48;;;12.15;;
27977;SDS011;15314;49.248;6.968;2023-07-02T03:58:02;14.77;;;12.32;;
27977;SDS011;15314;49.248;6.968;2023-07-02T03:59:02;14.85;;;13.38;;
27977;SDS011;15314;49.248;6.968;2023-07-02T04:00:03;14.27;;;12.65;;
27977;SDS011;15314;49.248;6.968;2023-07-02T04:01:05;13.68;;;12.35;;
27977;SDS011;15314;49.248;6.968;2023-07-02T04:02:06;16.13;;;12.85;;
27977;SDS011;15314;49.248;6.968;2023-07-02T04:03:06;14.32;;;12.90;;
27977;SDS011;15314;49.248;6.968;2023-07-02T04:04:07;17.52;;;13.18;;
27977;SDS011;15314;49.248;6.968;2023-07-02T04:05:07;15.05;;;13.50;;
27977;SDS011;15314;49.248;6.968;2023-07-02T04:06:08;14.82;;;13.32;;
27977;SDS011;15314;49.248;6.968;2023-07-02T04:07:09;16.30;;;12.90;;
27977;SDS011;15314;49.248;6.968;2023-07-02T04:08:09;15.43;;;12.65;;
27977;SDS011;15314;49.248;6.968;2023-07-02T04:09:10;15.73;;;14.18;;
27977;SDS011;15314;49.248;6.968;2023-07-02T04:10:11;21.55;;;13.50;;
27977;SDS011;15314;49.248;6.968;2023-07-02T04:11:11;14.77;;;12.88;;
27977;SDS011;15314;49.248;6.968;2023-07-02T04:12:12;14.43;;;12.93;;
27977;SDS011;15314;49.248;6.968;2023-07-02T04:13:13;13.93;;;12.52;;
27977;SDS011;15314;49.248;6.968;2023-07-02T04:14:13;18.55;;;14.00;;
27977;SDS011;15314;49.248;6.968;2023-07-02T04:15:14;14.48;;;13.07;;
27977;SDS011;15314;49.248;6.968;2023-07-02T04:16:15;17.25;;;13.50;;
27977;SDS011;15314;49.248;6.968;2023-07-02T04:17:15;14.38;;;12.75;;
27977;SDS011;15314;49.248;6.968;2023-07-02T04:18:16;14.75;;;13.18;;
27977;SDS011;15314;49.248;6.968;2023-07-02T04:19:17;14.73;;;12.57;;
27977;SDS011;15314;49.248;6.968;2023-07-02T04:20:17;20.30;;;12.57;;
27977;SDS011;15314;49.248;6.968;2023-07-02T04:21:21;15.27;;;13.48;;
27977;SDS011;15314;49.248;6.968;2023-07-02T04:22:22;15.25;;;13.55;;
27977;SDS011;15314;49.248;6.968;2023-07-02T04:23:22;16.65;;;13.30;;
27977;SDS011;15314;49.248;6.968;2023-07-02T04:24:23;17.80;;;13.68;;
27977;SDS011;15314;49.248;6.968;2023-07-02T04:25:26;16.40;;;13.05;;
27977;SDS011;15314;49.248;6.968;2023-07-02T04:26:26;18.95;;;13.38;;
27977;SDS011;15314;49.248;6.968;2023-07-02T04:27:27;19.52;;;14.15;;
27977;SDS011;15314;49.248;6.968;2023-07-02T04:28:28;21.83;;;15.07;;
27977;SDS011;15314;49.248;6.968;2023-07-02T04:29:28;21.20;;;14.55;;
27977;SDS011;15314;49.248;6.968;2023-07-02T04:30:29;17.38;;;14.23;;
27977;SDS011;15314;49.248;6.968;2023-07-02T04:31:30;17.40;;;13.75;;
27977;SDS011;15314;49.248;6.968;2023-07-02T04:32:30;16.95;;;13.93;;
27977;SDS011;15314;49.248;6.968;2023-07-02T04:33:31;16.17;;;14.48;;
27977;SDS011;15314;49.248;6.968;2023-07-02T04:34:36;21.75;;;14.68;;
27977;SDS011;15314;49.248;6.968;2023-07-02T04:35:36;18.85;;;14.48;;
27977;SDS011;15314;49.248;6.968;2023-07-02T04:36:37;19.73;;;15.27;;
27977;SDS011;15314;49.248;6.968;2023-07-02T04:37:38;21.02;;;14.65;;
27977;SDS011;15314;49.248;6.968;2023-07-02T04:38:38;16.65;;;14.98;;
27977;SDS011;15314;49.248;6.968;2023-07-02T04:39:39;18.27;;;15.18;;
27977;SDS011;15314;49.248;6.968;2023-07-02T04:40:40;18.73;;;14.80;;
27977;SDS011;15314;49.248;6.968;2023-07-02T04:41:44;20.25;;;15.00;;
27977;SDS011;15314;49.248;6.968;2023-07-02T04:42:45;19.48;;;14.40;;
27977;SDS011;15314;49.248;6.968;2023-07-02T04:43:49;20.52;;;15.13;;
27977;SDS011;15314;49.248;6.968;2023-07-02T04:44:50;16.80;;;14.80;;
27977;SDS011;15314;49.248;6.968;2023-07-02T04:45:50;20.02;;;15.40;;
27977;SDS011;15314;49.248;6.968;2023-07-02T04:46:51;22.73;;;15.05;;
27977;SDS011;15314;49.248;6.968;2023-07-02T04:47:53;16.65;;;14.63;;
27977;SDS011;15314;49.248;6.968;2023-07-02T04:48:54;21.35;;;16.83;;
27977;SDS011;15314;49.248;6.968;2023-07-02T04:49:54;18.50;;;16.00;;
27977;SDS011;15314;49.248;6.968;2023-07-02T04:50:56;20.45;;;15.90;;
27977;SDS011;15314;49.248;6.968;2023-07-02T04:51:57;18.83;;;16.05;;
27977;SDS011;15314;49.248;6.968;2023-07-02T04:52:58;18.55;;;16.20;;
27977;SDS011;15314;49.248;6.968;2023-07-02T04:53:58;22.98;;;16.77;;
27977;SDS011;15314;49.248;6.968;2023-07-02T04:54:59;18.67;;;16.48;;
27977;SDS011;15314;49.248;6.968;2023-07-02T04:56:00;24.23;;;16.98;;
27977;SDS011;15314;49.248;6.968;2023-07-02T04:57:01;24.95;;;16.60;;
27977;SDS011;15314;49.248;6.968;2023-07-02T04:58:02;21.08;;;16.35;;
27977;SDS011;15314;49.248;6.968;2023-07-02T04:59:02;20.30;;;16.08;;
27977;SDS011;15314;49.248;6.968;2023-07-02T05:00:03;20.80;;;16.38;;
27977;SDS011;15314;49.248;6.968;2023-07-02T05:01:08;25.42;;;17.15;;
27977;SDS011;15314;49.248;6.968;2023-07-02T05:02:09;25.45;;;17.40;;
27977;SDS011;15314;49.248;6.968;2023-07-02T05:03:10;24.25;;;17.45;;
27977;SDS011;15314;49.248;6.968;2023-07-02T05:04:11;22.55;;;18.23;;
27977;SDS011;15314;49.248;6.968;2023-07-02T05:05:11;23.20;;;17.60;;
27977;SDS011;15314;49.248;6.968;2023-07-02T05:06:12;26.38;;;18.85;;
27977;SDS011;15314;49.248;6.968;2023-07-02T05:07:13;22.80;;;17.67;;
27977;SDS011;15314;49.248;6.968;2023-07-02T05:08:14;26.35;;;18.52;;
27977;SDS011;15314;49.248;6.968;2023-07-02T05:09:14;25.75;;;18.83;;
27977;SDS011;15314;49.248;6.968;2023-07-02T05:10:15;26.52;;;19.70;;
27977;SDS011;15314;49.248;6.968;2023-07-02T05:11:16;25.88;;;19.05;;
27977;SDS011;15314;49.248;6.968;2023-07-02T05:12:16;26.05;;;18.20;;
27977;SDS011;15314;49.248;6.968;2023-07-02T05:13:17;25.70;;;19.38;;
27977;SDS011;15314;49.248;6.968;2023-07-02T05:14:18;26.98;;;19.95;;
27977;SDS011;15314;49.248;6.968;2023-07-02T05:15:19;25.65;;;19.90;;
27977;SDS011;15314;49.248;6.968;2023-07-02T05:16:19;25.00;;;20.63;;
27977;SDS011;15314;49.248;6.968;2023-07-02T05:17:20;32.67;;;19.95;;
27977;SDS011;15314;49.248;6.968;2023-07-02T05:18:21;28.48;;;20.63;;
27977;SDS011;15314;49.248;6.968;2023-07-02T05:19:21;31.67;;;20.70;;
27977;SDS011;15314;49.248;6.968;2023-07-02T05:20:22;25.25;;;20.10;;
27977;SDS011;15314;49.248;6.968;2023-07-02T05:21:23;33.88;;;21.67;;
27977;SDS011;15314;49.248;6.968;2023-07-02T05:22:23;32.97;;;21.83;;
27977;SDS011;15314;49.248;6.968;2023-07-02T05:23:24;32.67;;;21.02;;
27977;SDS011;15314;49.248;6.968;2023-07-02T05:24:25;29.40;;;20.83;;
27977;SDS011;15314;49.248;6.968;2023-07-02T05:25:26;31.67;;;20.90;;
27977;SDS011;15314;49.248;6.968;2023-07-02T05:26:26;31.77;;;22.30;;
27977;SDS011;15314;49.248;6.968;2023-07-02T05:27:27;31.45;;;21.58;;
27977;SDS011;15314;49.248;6.968;2023-07-02T05:28:28;33.38;;;22.58;;
27977;SDS011;15314;49.248;6.968;2023-07-02T05:29:28;30.48;;;21.88;;
27977;SDS011;15314;49.248;6.968;2023-07-02T05:30:29;30.13;;;22.23;;
27977;SDS011;15314;49.248;6.968;2023-07-02T05:31:30;34.50;;;21.98;;
27977;SDS011;15314;49.248;6.968;2023-07-02T05:32:30;29.45;;;21.95;;
27977;SDS011;15314;49.248;6.968;2023-07-02T05:33:33;33.75;;;22.25;;
27977;SDS011;15314;49.248;6.968;2023-07-02T05:34:34;33.50;;;21.63;;
27977;SDS011;15314;49.248;6.968;2023-07-02T05:35:34;29.00;;;21.92;;
27977;SDS011;15314;49.248;6.968;2023-07-02T05:36:35;34.75;;;23.80;;
27977;SDS011;15314;49.248;6.968;2023-07-02T05:37:36;33.72;;;23.48;;
27977;SDS011;15314;49.248;6.968;2023-07-02T05:38:36;34.13;;;22.05;;
27977;SDS011;15314;49.248;6.968;2023-07-02T05:39:37;29.65;;;21.05;;
27977;SDS011;15314;49.248;6.968;2023-07-02T05:40:38;33.70;;;23.55;;
27977;SDS011;15314;49.248;6.968;2023-07-02T05:41:38;34.95;;;23.33;;
27977;SDS011;15314;49.248;6.968;2023-07-02T05:42:39;35.72;;;24.30;;
27977;SDS011;15314;49.248;6.968;2023-07-02T05:43:40;35.13;;;24.02;;
27977;SDS011;15314;49.248;6.968;2023-07-02T05:44:40;37.03;;;24.40;;
27977;SDS011;15314;49.248;6.968;2023-07-02T05:45:41;38.38;;;24.10;;
27977;SDS011;15314;49.248;6.968;2023-07-02T05:46:42;35.03;;;25.20;;
27977;SDS011;15314;49.248;6.968;2023-07-02T05:47:43;35.55;;;25.30;;
27977;SDS011;15314;49.248;6.968;2023-07-02T05:48:43;37.35;;;23.83;;
27977;SDS011;15314;49.248;6.968;2023-07-02T05:49:44;35.83;;;24.08;;
27977;SDS011;15314;49.248;6.968;2023-07-02T05:50:45;35.63;;;24.48;;
27977;SDS011;15314;49.248;6.968;2023-07-02T05:51:45;39.83;;;25.60;;
27977;SDS011;15314;49.248;6.968;2023-07-02T05:52:46;37.00;;;25.30;;
27977;SDS011;15314;49.248;6.968;2023-07-02T05:53:47;41.80;;;25.05;;
27977;SDS011;15314;49.248;6.968;2023-07-02T05:54:48;34.78;;;25.05;;
27977;SDS011;15314;49.248;6.968;2023-07-02T05:55:48;40.40;;;26.08;;
27977;SDS011;15314;49.248;6.968;2023-07-02T05:56:49;33.83;;;25.25;;
27977;SDS011;15314;49.248;6.968;2023-07-02T05:57:50;43.72;;;26.45;;
27977;SDS011;15314;49.248;6.968;2023-07-02T05:58:50;39.17;;;26.10;;
27977;SDS011;15314;49.248;6.968;2023-07-02T05:59:51;40.30;;;27.17;;
27977;SDS011;15314;49.248;6.968;2023-07-02T06:00:52;41.92;;;27.33;;
27977;SDS011;15314;49.248;6.968;2023-07-02T06:01:52;40.67;;;26.10;;